Time;durP1;ratioP1;P1;durP2;ratioP2;P2;SDS_P1;SDS_P2;PMS_P1;PMS_P2;Temp;Humidity;BMP_temperature;BMP_pressure;BME280_temperature;BME280_humidity;BME280_pressure;Samples;Min_cycle;Max_cycle;Signal;HPM_P1;HPM_P2
2022/03/14 00:00:58;;;;;;;1.75;1.45;;;;;;;11.01;59.30;101639.16;5001992;28;20054;-72
2022/03/14 00:03:25;;;;;;;2.28;1.50;;;;;;;11.06;59.14;101631.75;5002990;28;20048;-72
2022/03/14 00:05:51;;;;;;;2.28;1.65;;;;;;;10.99;59.52;101638.34;5001058;28;20387;-72
2022/03/14 00:08:19;;;;;;;2.63;1.45;;;;;;;10.92;60.27;101638.75;5002571;28;20057;-72
2022/03/14 00:10:45;;;;;;;2.35;1.88;;;;;;;10.89;60.57;101650.44;5002645;28;20050;-71
2022/03/14 00:13:11;;;;;;;2.13;1.65;;;;;;;10.84;60.77;101657.81;4996881;28;20072;-72
2022/03/14 00:15:40;;;;;;;2.38;1.77;;;;;;;10.80;60.94;101659.81;4981533;28;20030;-72
2022/03/14 00:18:06;;;;;;;3.67;2.28;;;;;;;10.70;61.51;101657.69;4981125;28;20042;-72
2022/03/14 00:20:31;;;;;;;3.58;2.35;;;;;;;10.68;61.29;101660.41;4971166;28;20042;-72
2022/03/14 00:22:58;;;;;;;2.72;2.08;;;;;;;10.68;61.29;101654.22;5000509;28;20056;-72
2022/03/14 00:25:24;;;;;;;2.70;2.15;;;;;;;10.68;61.34;101664.88;4997965;28;20140;-72
2022/03/14 00:27:50;;;;;;;3.42;2.28;;;;;;;10.69;61.38;101669.28;4999790;28;20056;-72
2022/03/14 00:30:15;;;;;;;2.60;2.03;;;;;;;10.62;61.58;101666.94;5003814;28;20033;-72
2022/03/14 00:32:41;;;;;;;2.25;1.90;;;;;;;10.65;61.57;101665.06;5003164;28;20494;-72
2022/03/14 00:35:08;;;;;;;3.97;1.85;;;;;;;10.53;62.02;101674.53;5002427;28;20038;-72
2022/03/14 00:37:35;;;;;;;4.15;1.80;;;;;;;10.51;62.38;101673.75;5003747;28;20037;-72
2022/03/14 00:40:01;;;;;;;2.78;2.00;;;;;;;10.50;62.25;101674.69;5004588;28;20033;-73
2022/03/14 00:42:27;;;;;;;3.58;1.95;;;;;;;10.51;62.23;101673.75;5003812;28;20763;-72
2022/03/14 00:44:52;;;;;;;1.70;1.50;;;;;;;10.50;62.05;101672.88;5002873;28;20049;-71
2022/03/14 00:47:21;;;;;;;6.93;2.20;;;;;;;10.47;62.26;101680.16;5003772;28;20126;-74
2022/03/14 00:49:47;;;;;;;3.50;2.20;;;;;;;10.44;62.70;101678.53;5003126;28;20032;-72
2022/03/14 00:52:13;;;;;;;3.78;2.22;;;;;;;10.50;62.33;101674.69;5002661;28;20034;-72
2022/03/14 00:54:43;;;;;;;2.92;1.98;;;;;;;10.48;62.64;101674.75;5004052;28;20395;-72
2022/03/14 00:57:08;;;;;;;3.42;2.22;;;;;;;10.43;62.93;101674.09;5003159;28;20034;-72
2022/03/14 00:59:34;;;;;;;2.65;2.38;;;;;;;10.42;63.02;101683.06;5001657;28;20037;-72
2022/03/14 01:02:01;;;;;;;2.97;2.15;;;;;;;10.40;63.07;101686.75;5002880;28;20033;-72
2022/03/14 01:04:27;;;;;;;3.17;2.30;;;;;;;10.37;63.25;101685.94;5017586;28;20054;-72
2022/03/14 01:06:53;;;;;;;3.08;2.33;;;;;;;10.29;63.55;101697.91;5003616;28;20052;-72
2022/03/14 01:09:19;;;;;;;2.75;2.33;;;;;;;10.37;63.31;101695.75;5002243;28;20038;-72
2022/03/14 01:11:44;;;;;;;2.47;2.28;;;;;;;10.33;63.51;101700.34;5001212;28;20129;-72
2022/03/14 01:14:11;;;;;;;2.80;2.30;;;;;;;10.36;63.33;101707.34;5017071;28;20755;-72
2022/03/14 01:16:37;;;;;;;3.20;2.20;;;;;;;10.38;63.05;101705.47;5024719;28;20712;-72
2022/03/14 01:19:04;;;;;;;2.25;2.05;;;;;;;10.40;63.05;101713.41;5022960;28;20034;-71
2022/03/14 01:21:30;;;;;;;2.78;2.20;;;;;;;10.29;63.83;101719.25;5018555;28;20046;-71
2022/03/14 01:23:56;;;;;;;2.47;2.10;;;;;;;10.30;63.68;101718.31;5003836;28;20406;-72
2022/03/14 01:26:21;;;;;;;3.35;2.47;;;;;;;10.34;63.27;101730.53;5002059;28;20108;-72
2022/03/14 01:28:48;;;;;;;2.47;2.10;;;;;;;10.31;63.59;101725.38;5004475;28;20037;-72
2022/03/14 01:31:14;;;;;;;4.10;2.55;;;;;;;10.32;63.65;101724.44;5019603;28;20045;-72
2022/03/14 01:33:40;;;;;;;2.47;2.13;;;;;;;10.25;64.16;101717.69;5003477;28;20066;-72
2022/03/14 01:36:08;;;;;;;2.80;2.40;;;;;;;10.30;63.68;101721.00;5003680;28;20045;-72
2022/03/14 01:38:33;;;;;;;3.15;2.53;;;;;;;10.30;63.84;101718.31;5005681;28;20117;-72
2022/03/14 01:41:00;;;;;;;3.13;2.40;;;;;;;10.30;64.02;101723.66;5004696;28;20033;-73
2022/03/14 01:43:26;;;;;;;3.63;2.42;;;;;;;10.27;63.98;101729.13;5020905;28;20038;-71
2022/03/14 01:45:58;;;;;;;3.35;2.47;;;;;;;10.28;64.30;101726.38;5020004;28;20045;-74
2022/03/14 01:48:25;;;;;;;3.95;2.47;;;;;;;10.27;64.30;101724.66;5004368;28;20042;-73
2022/03/14 01:50:51;;;;;;;2.90;2.50;;;;;;;10.30;63.99;101732.50;5017477;28;20046;-71
2022/03/14 01:53:20;;;;;;;3.03;2.08;;;;;;;10.27;64.28;101737.97;5005815;28;20073;-72
2022/03/14 01:55:50;;;;;;;3.70;2.65;;;;;;;10.28;64.29;101736.19;5006792;28;20053;-72
2022/03/14 01:58:16;;;;;;;5.90;3.13;;;;;;;10.31;64.06;101734.25;5005359;28;20402;-72
2022/03/14 02:00:43;;;;;;;2.50;2.20;;;;;;;10.30;64.40;101736.97;5004504;28;20044;-72
2022/03/14 02:03:09;;;;;;;4.18;3.03;;;;;;;10.27;64.47;101732.66;4990422;28;20038;-71
2022/03/14 02:05:36;;;;;;;3.85;2.22;;;;;;;10.31;64.31;101722.72;5005272;28;20045;-72
2022/03/14 02:08:02;;;;;;;2.95;2.53;;;;;;;10.29;64.59;101727.22;5005593;28;20080;-72
2022/03/14 02:10:28;;;;;;;3.85;2.33;;;;;;;10.23;64.54;101739.03;5005815;28;20049;-72
2022/03/14 02:12:53;;;;;;;3.33;2.60;;;;;;;10.18;64.85;101729.53;5005432;28;20120;-72
2022/03/14 02:15:20;;;;;;;3.63;2.63;;;;;;;10.13;64.85;101743.94;5006355;28;20092;-72
2022/03/14 02:17:48;;;;;;;3.55;2.58;;;;;;;10.15;64.98;101748.34;5021268;28;20045;-72
2022/03/14 02:20:13;;;;;;;4.00;2.75;;;;;;;10.11;65.23;101755.59;5000639;28;20042;-72
2022/03/14 02:22:39;;;;;;;2.95;2.60;;;;;;;10.03;65.51;101747.09;4984785;28;20060;-72
2022/03/14 02:25:10;;;;;;;3.45;2.40;;;;;;;10.00;65.65;101756.13;5017781;28;20100;-71
2022/03/14 02:27:36;;;;;;;3.92;2.88;;;;;;;10.00;65.68;101757.91;4984561;28;20064;-72
2022/03/14 02:30:03;;;;;;;3.47;2.75;;;;;;;10.04;65.22;101749.72;5017762;28;20490;-72
2022/03/14 02:32:28;;;;;;;7.13;2.90;;;;;;;10.00;65.62;101753.44;4986523;28;20069;-72
2022/03/14 02:34:53;;;;;;;3.83;2.80;;;;;;;10.00;65.42;101752.59;4985405;28;20580;-72
2022/03/14 02:37:19;;;;;;;4.18;2.88;;;;;;;9.99;65.74;101745.50;4986469;28;20851;-73
2022/03/14 02:39:47;;;;;;;6.68;4.05;;;;;;;9.97;65.58;101750.06;4986505;28;20061;-72
2022/03/14 02:42:12;;;;;;;3.45;2.65;;;;;;;9.97;65.67;101750.91;4987128;28;20125;-71
2022/03/14 02:44:43;;;;;;;7.78;2.97;;;;;;;9.98;65.75;101749.09;4984650;28;20038;-72
2022/03/14 02:47:10;;;;;;;3.85;3.25;;;;;;;10.00;66.01;101752.59;4985995;28;20074;-72
2022/03/14 02:49:35;;;;;;;6.55;3.30;;;;;;;10.04;65.70;101751.47;4985902;28;20046;-72
2022/03/14 02:52:00;;;;;;;3.00;2.65;;;;;;;10.03;66.06;101755.94;5017223;28;20104;-71
2022/03/14 02:54:26;;;;;;;3.92;2.88;;;;;;;10.06;65.80;101757.63;4984450;28;20042;-72
2022/03/14 02:56:52;;;;;;;4.50;2.90;;;;;;;10.02;66.00;101770.22;4985612;28;20065;-72
2022/03/14 02:59:19;;;;;;;4.20;3.08;;;;;;;10.03;66.33;101769.28;4985283;28;20034;-73
2022/03/14 03:01:44;;;;;;;4.85;3.63;;;;;;;10.01;66.41;101770.28;4985805;28;20080;-72
2022/03/14 03:04:10;;;;;;;4.47;3.33;;;;;;;9.95;66.80;101773.25;4967238;28;20042;-72
2022/03/14 03:06:35;;;;;;;4.53;3.50;;;;;;;9.96;66.61;101770.50;4984038;28;20050;-72
2022/03/14 03:09:05;;;;;;;5.13;3.42;;;;;;;9.97;66.72;101784.69;4983643;28;20058;-72
2022/03/14 03:11:33;;;;;;;4.13;2.85;;;;;;;9.92;67.48;101786.69;4985602;28;20212;-72
2022/03/14 03:14:03;;;;;;;4.57;3.40;;;;;;;9.82;68.37;101787.09;4992944;28;20042;-72
2022/03/14 03:16:29;;;;;;;4.55;3.33;;;;;;;9.86;67.87;101793.16;4986190;28;20030;-72
2022/03/14 03:18:55;;;;;;;5.28;3.45;;;;;;;9.78;68.63;101785.50;4986136;28;20146;-72
2022/03/14 03:21:21;;;;;;;5.28;3.55;;;;;;;9.76;68.60;101783.88;4993883;28;20050;-72
2022/03/14 03:23:47;;;;;;;5.13;3.60;;;;;;;9.75;68.79;101792.78;4984769;28;20146;-72
2022/03/14 03:26:15;;;;;;;4.90;3.40;;;;;;;9.73;69.06;101802.63;4986854;28;20419;-71
2022/03/14 03:28:41;;;;;;;5.43;3.40;;;;;;;9.71;69.34;101804.50;4998236;28;20044;-71
2022/03/14 03:31:06;;;;;;;3.90;3.30;;;;;;;9.68;70.13;101802.84;5005490;28;20560;-72
2022/03/14 03:33:32;;;;;;;5.53;3.75;;;;;;;9.74;69.54;101805.25;5005323;28;20123;-72
2022/03/14 03:35:59;;;;;;;3.83;3.25;;;;;;;9.72;69.67;101814.22;5005516;28;20049;-72
2022/03/14 03:38:25;;;;;;;6.38;3.90;;;;;;;9.70;70.31;101824.97;5003592;28;20143;-71
2022/03/14 03:40:51;;;;;;;7.22;3.53;;;;;;;9.70;70.22;101827.63;5004181;28;20188;-72
2022/03/14 03:43:16;;;;;;;6.07;3.92;;;;;;;9.75;69.89;101827.44;5004844;28;20877;-72
2022/03/14 03:45:42;;;;;;;6.72;3.40;;;;;;;9.71;70.17;101826.69;5005739;28;20041;-72
2022/03/14 03:48:07;;;;;;;6.65;4.05;;;;;;;9.67;70.75;101832.22;5004489;28;20048;-72
2022/03/14 03:50:34;;;;;;;4.30;3.45;;;;;;;9.69;70.62;101838.31;5003499;28;20041;-72
2022/03/14 03:53:01;;;;;;;4.18;3.55;;;;;;;9.67;70.64;101843.72;5003861;28;20049;-72
2022/03/14 03:55:27;;;;;;;6.20;4.03;;;;;;;9.66;70.95;101849.13;5004529;28;20129;-72
2022/03/14 03:57:52;;;;;;;5.90;4.07;;;;;;;9.63;71.56;101846.59;5001663;28;20091;-71
2022/03/14 04:00:19;;;;;;;5.72;3.95;;;;;;;9.59;71.48;101854.72;5003626;28;20064;-72
2022/03/14 04:02:44;;;;;;;6.18;3.80;;;;;;;9.64;72.04;101853.63;5003726;28;20119;-72
2022/03/14 04:05:16;;;;;;;5.35;3.80;;;;;;;9.64;71.99;101857.19;5004218;28;20045;-72
2022/03/14 04:07:43;;;;;;;5.50;3.95;;;;;;;9.58;71.83;101863.63;5003810;28;20053;-72
2022/03/14 04:10:09;;;;;;;5.97;4.13;;;;;;;9.55;72.25;101860.25;5004516;28;20556;-71
2022/03/14 04:12:40;;;;;;;6.88;4.30;;;;;;;9.60;71.97;101868.91;5003451;28;20034;-72
2022/03/14 04:15:09;;;;;;;7.15;4.57;;;;;;;9.61;71.98;101873.28;5024794;28;20037;-72
2022/03/14 04:17:36;;;;;;;6.20;3.92;;;;;;;9.62;72.05;101882.13;5024920;28;20713;-72
2022/03/14 04:20:04;;;;;;;7.03;4.07;;;;;;;9.62;71.91;101882.13;5021044;28;20044;-72
2022/03/14 04:22:30;;;;;;;6.43;4.30;;;;;;;9.63;71.73;101876.75;5004186;28;20815;-72
2022/03/14 04:24:56;;;;;;;8.75;4.38;;;;;;;9.60;72.23;101887.53;5004497;28;20889;-72
2022/03/14 04:27:26;;;;;;;6.47;4.40;;;;;;;9.60;72.22;101896.38;5003435;28;20084;-71
2022/03/14 04:29:51;;;;;;;6.82;4.00;;;;;;;9.64;72.10;101889.16;5003173;28;20041;-72
2022/03/14 04:32:17;;;;;;;6.32;4.20;;;;;;;9.48;73.20;101891.56;5004268;28;20088;-72
2022/03/14 04:34:42;;;;;;;5.70;4.32;;;;;;;9.53;72.76;101902.88;5003616;28;20116;-72
2022/03/14 04:37:08;;;;;;;5.95;4.25;;;;;;;9.49;73.11;101895.13;5002833;28;20037;-71
2022/03/14 04:39:33;;;;;;;4.88;3.72;;;;;;;9.51;72.99;101899.44;5003749;28;20044;-72
2022/03/14 04:41:59;;;;;;;5.47;3.95;;;;;;;9.44;73.28;101902.41;5002731;28;20045;-72
2022/03/14 04:44:24;;;;;;;7.68;4.38;;;;;;;9.50;73.13;101912.81;5001283;28;20064;-71
2022/03/14 04:46:50;;;;;;;8.27;4.30;;;;;;;9.40;73.63;101904.34;5018346;28;20058;-73
2022/03/14 04:49:15;;;;;;;7.55;4.93;;;;;;;9.42;73.49;101906.94;5003477;28;20140;-71
2022/03/14 04:51:41;;;;;;;7.15;4.13;;;;;;;9.43;73.46;101919.31;5019173;28;20069;-72
2022/03/14 04:54:08;;;;;;;7.75;4.60;;;;;;;9.37;73.55;101920.44;4995964;28;20399;-72
2022/03/14 04:56:33;;;;;;;6.97;4.85;;;;;;;9.37;74.08;101930.22;5002917;28;20065;-71
2022/03/14 04:58:59;;;;;;;6.47;4.57;;;;;;;9.39;73.85;101929.25;5015541;28;20065;-72
2022/03/14 05:01:24;;;;;;;6.15;4.45;;;;;;;9.40;73.68;101938.97;4983928;28;20430;-72
2022/03/14 05:03:52;;;;;;;5.38;3.90;;;;;;;9.39;73.88;101946.97;4984568;28;20034;-72
2022/03/14 05:06:21;;;;;;;7.40;5.20;;;;;;;9.37;73.94;101954.19;4983679;28;20042;-72
2022/03/14 05:08:47;;;;;;;8.73;5.45;;;;;;;9.41;73.77;101959.31;4983085;28;20070;-72
2022/03/14 05:11:13;;;;;;;8.77;5.32;;;;;;;9.32;73.85;101963.22;4982781;28;20152;-72
2022/03/14 05:13:39;;;;;;;8.27;5.00;;;;;;;9.30;74.04;101959.75;4994248;28;20037;-72
2022/03/14 05:16:05;;;;;;;8.55;5.95;;;;;;;9.34;73.59;101958.72;5005096;28;20056;-72
2022/03/14 05:18:30;;;;;;;7.45;5.35;;;;;;;9.36;73.71;101965.75;5002548;28;20502;-72
2022/03/14 05:20:56;;;;;;;7.50;5.55;;;;;;;9.33;73.86;101964.06;5004226;28;20057;-72
2022/03/14 05:23:21;;;;;;;7.10;5.15;;;;;;;9.34;73.44;101961.38;5004021;28;20056;-72
2022/03/14 05:25:47;;;;;;;8.35;5.32;;;;;;;9.35;72.65;101970.22;5003809;28;20814;-71
2022/03/14 05:28:12;;;;;;;7.25;5.28;;;;;;;9.39;72.43;101974.50;5004585;28;20041;-71
2022/03/14 05:30:38;;;;;;;6.80;5.22;;;;;;;9.36;72.91;101976.41;5004655;28;20649;-72
2022/03/14 05:33:03;;;;;;;9.35;5.60;;;;;;;9.33;72.71;101983.56;5005950;28;20040;-72
2022/03/14 05:35:29;;;;;;;9.07;5.95;;;;;;;9.38;73.24;101988.72;5005501;28;20057;-72
2022/03/14 05:37:54;;;;;;;9.68;5.40;;;;;;;9.26;73.80;101990.06;5004513;28;20030;-71
2022/03/14 05:40:20;;;;;;;7.57;5.82;;;;;;;9.28;74.10;101990.00;4992713;28;20050;-70
2022/03/14 05:42:48;;;;;;;9.82;6.10;;;;;;;9.22;74.15;101993.78;5001608;28;20453;-71
2022/03/14 05:45:14;;;;;;;8.50;5.95;;;;;;;9.12;74.78;102003.03;5001153;28;20030;-71
2022/03/14 05:47:40;;;;;;;12.95;8.55;;;;;;;8.98;75.15;102014.22;5004184;28;20042;-70
2022/03/14 05:50:06;;;;;;;15.77;9.35;;;;;;;8.85;76.29;102014.75;5001313;28;20049;-71
2022/03/14 05:52:32;;;;;;;15.00;9.65;;;;;;;8.77;76.53;102017.69;4996229;28;20614;-70
2022/03/14 05:54:57;;;;;;;15.73;10.05;;;;;;;8.77;76.79;102025.66;4996903;28;20038;-71
2022/03/14 05:57:23;;;;;;;18.48;11.88;;;;;;;8.76;77.07;102023.94;5000776;28;20049;-71
2022/03/14 05:59:48;;;;;;;17.02;10.57;;;;;;;8.70;77.46;102035.66;5004709;28;20026;-71
2022/03/14 06:02:24;;;;;;;15.80;10.38;;;;;;;8.75;77.21;102035.50;5001624;28;20037;-71
2022/03/14 06:04:51;;;;;;;16.00;10.18;;;;;;;8.77;76.86;102030.97;4999266;28;20038;-71
2022/03/14 06:07:21;;;;;;;16.92;10.23;;;;;;;8.81;76.41;102043.25;5001358;28;20030;-70
2022/03/14 06:09:50;;;;;;;19.15;10.73;;;;;;;8.89;76.47;102038.53;5002940;28;20046;-70
2022/03/14 06:12:27;;;;;;;17.13;10.73;;;;;;;8.90;75.98;102042.06;5000051;28;20049;-70
2022/03/14 06:14:58;;;;;;;13.82;9.85;;;;;;;8.86;75.93;102043.94;5001104;28;20068;-71
2022/03/14 06:17:24;;;;;;;17.17;10.40;;;;;;;8.90;76.02;102055.34;5016235;28;20109;-72
2022/03/14 06:19:50;;;;;;;13.70;8.90;;;;;;;8.97;75.49;102059.50;5001509;28;20121;-70
2022/03/14 06:22:17;;;;;;;16.52;9.45;;;;;;;8.93;75.90;102060.53;5005168;28;20236;-70
2022/03/14 06:24:42;;;;;;;12.70;8.90;;;;;;;8.93;75.27;102071.19;5002052;28;20137;-70
2022/03/14 06:27:08;;;;;;;15.57;9.98;;;;;;;8.94;75.22;102068.47;5008983;28;20049;-70
2022/03/14 06:29:34;;;;;;;17.05;9.57;;;;;;;9.00;74.45;102073.56;5002389;28;20490;-71
2022/03/14 06:31:59;;;;;;;15.77;10.07;;;;;;;8.97;74.08;102078.13;4999075;28;20137;-70
2022/03/14 06:34:26;;;;;;;16.25;10.07;;;;;;;9.02;73.78;102085.00;5002572;28;20040;-71
2022/03/14 06:36:51;;;;;;;17.80;10.35;;;;;;;9.01;73.51;102087.75;4992572;28;20407;-70
2022/03/14 06:39:17;;;;;;;17.00;9.93;;;;;;;9.02;72.96;102090.34;5000808;28;20030;-70
2022/03/14 06:41:43;;;;;;;17.35;10.63;;;;;;;9.08;73.38;102099.88;5011355;28;20076;-72
2022/03/14 06:44:08;;;;;;;22.42;10.35;;;;;;;9.07;73.14;102104.34;5004146;28;20490;-71
2022/03/14 06:46:34;;;;;;;16.15;10.55;;;;;;;9.07;72.73;102114.97;5003691;28;20053;-71
2022/03/14 06:48:59;;;;;;;15.57;10.07;;;;;;;9.07;73.25;102114.13;5010924;28;20054;-71
2022/03/14 06:51:26;;;;;;;17.08;9.95;;;;;;;9.07;73.01;102111.44;5002201;28;20037;-71
2022/03/14 06:53:52;;;;;;;16.33;10.75;;;;;;;9.11;73.26;102122.84;5001844;28;20573;-71
2022/03/14 06:56:17;;;;;;;17.33;9.98;;;;;;;9.06;73.41;102123.03;4999368;28;20033;-71
2022/03/14 06:58:43;;;;;;;15.73;9.80;;;;;;;9.08;73.61;102127.34;5001868;28;20459;-71
2022/03/14 07:01:12;;;;;;;12.98;9.35;;;;;;;9.09;73.68;102122.94;5001943;28;20049;-72
2022/03/14 07:03:37;;;;;;;16.25;9.48;;;;;;;9.12;73.47;102133.44;4999888;28;20088;-71
2022/03/14 07:06:03;;;;;;;14.15;10.48;;;;;;;9.20;73.32;102134.03;5003517;28;20041;-72
2022/03/14 07:08:28;;;;;;;15.43;9.98;;;;;;;9.18;73.27;102125.22;5000726;28;20034;-71
2022/03/14 07:10:54;;;;;;;16.42;10.68;;;;;;;9.28;73.33;102137.25;5001147;28;20053;-71
2022/03/14 07:13:20;;;;;;;18.48;11.07;;;;;;;9.31;72.86;102136.28;5004449;28;20045;-71
2022/03/14 07:15:45;;;;;;;21.88;11.40;;;;;;;9.29;72.75;102141.69;4999105;28;20034;-71
2022/03/14 07:18:11;;;;;;;20.23;13.15;;;;;;;9.37;72.29;102140.53;5001417;28;20045;-72
2022/03/14 07:20:36;;;;;;;26.58;12.25;;;;;;;9.39;72.32;102144.88;4995393;28;20042;-71
2022/03/14 07:23:02;;;;;;;19.45;12.30;;;;;;;9.44;72.27;102142.00;5000796;28;20113;-71
2022/03/14 07:25:34;;;;;;;21.08;12.07;;;;;;;9.46;72.05;102148.16;5000050;28;20398;-71
2022/03/14 07:28:02;;;;;;;21.30;12.65;;;;;;;9.52;71.83;102150.59;4998344;28;20046;-71
2022/03/14 07:30:28;;;;;;;23.90;12.95;;;;;;;9.44;72.40;102148.22;5000512;28;20086;-72
2022/03/14 07:32:54;;;;;;;19.88;12.05;;;;;;;9.53;71.59;102147.84;5017275;28;20076;-71
2022/03/14 07:35:20;;;;;;;22.77;14.15;;;;;;;9.53;71.88;102153.19;5002614;28;20120;-71
2022/03/14 07:37:46;;;;;;;20.40;11.88;;;;;;;9.49;72.09;102154.25;4992856;28;20045;-71
2022/03/14 07:40:13;;;;;;;21.65;12.57;;;;;;;9.41;71.96;102164.31;4996733;28;20034;-72
2022/03/14 07:42:44;;;;;;;20.80;12.60;;;;;;;9.65;71.25;102165.19;5001146;28;20514;-72
2022/03/14 07:45:11;;;;;;;19.20;12.50;;;;;;;9.56;71.36;102177.03;4997779;28;20178;-71
2022/03/14 07:47:39;;;;;;;20.50;13.27;;;;;;;9.79;71.37;102180.66;4999787;28;20057;-71
2022/03/14 07:50:05;;;;;;;22.42;12.82;;;;;;;9.67;71.09;102186.44;4999375;28;20111;-71
2022/03/14 07:52:31;;;;;;;23.92;13.52;;;;;;;9.83;70.73;102192.91;4998851;28;20038;-72
2022/03/14 07:54:56;;;;;;;24.13;12.85;;;;;;;9.87;70.56;102191.84;5002450;28;20060;-71
2022/03/14 07:57:23;;;;;;;22.65;13.27;;;;;;;9.73;70.77;102194.16;5002468;28;20042;-71
2022/03/14 07:59:48;;;;;;;24.17;12.90;;;;;;;9.99;70.04;102193.16;4998694;28;20038;-71
2022/03/14 08:02:14;;;;;;;25.23;13.65;;;;;;;9.76;70.54;102202.06;5002939;28;20033;-71
2022/03/14 08:04:40;;;;;;;23.45;12.65;;;;;;;9.89;70.45;102207.78;5015740;28;20545;-72
2022/03/14 08:07:06;;;;;;;20.33;12.52;;;;;;;9.88;70.51;102200.72;4998160;28;20137;-71
2022/03/14 08:09:32;;;;;;;21.05;13.20;;;;;;;9.94;70.13;102213.78;5002301;28;20084;-72
2022/03/14 08:12:00;;;;;;;28.13;13.13;;;;;;;10.03;70.20;102216.09;5002426;28;20065;-71
2022/03/14 08:14:26;;;;;;;25.25;14.90;;;;;;;10.04;69.80;102220.50;5002820;28;20042;-71
2022/03/14 08:16:51;;;;;;;24.15;13.80;;;;;;;10.08;69.30;102222.13;5003066;28;20139;-72
2022/03/14 08:19:17;;;;;;;26.10;14.35;;;;;;;10.07;69.58;102231.91;4999543;28;20042;-72
2022/03/14 08:21:42;;;;;;;27.45;14.63;;;;;;;10.14;69.66;102235.22;5001585;28;20042;-71
2022/03/14 08:24:08;;;;;;;25.80;14.75;;;;;;;10.08;69.42;102238.97;4997614;28;20037;-72
2022/03/14 08:26:34;;;;;;;26.17;14.23;;;;;;;10.11;69.63;102238.00;5002509;28;20088;-71
2022/03/14 08:29:00;;;;;;;25.15;15.95;;;;;;;10.02;69.99;102241.88;5002221;28;20049;-71
2022/03/14 08:31:26;;;;;;;29.27;16.65;;;;;;;9.92;70.69;102250.28;5011103;28;20046;-71
2022/03/14 08:33:52;;;;;;;25.63;15.20;;;;;;;9.92;70.69;102258.28;5001491;28;20119;-72
2022/03/14 08:36:20;;;;;;;32.58;16.40;;;;;;;10.00;70.43;102265.06;4998674;28;20493;-72
2022/03/14 08:38:48;;;;;;;31.73;17.85;;;;;;;10.16;69.57;102269.81;4989765;28;20064;-71
2022/03/14 08:41:16;;;;;;;36.75;18.52;;;;;;;10.13;69.78;102279.66;4962709;28;20046;-72
2022/03/14 08:43:45;;;;;;;31.58;17.20;;;;;;;10.17;69.57;102282.22;4997755;28;20483;-72
2022/03/14 08:46:12;;;;;;;28.95;17.50;;;;;;;10.16;69.10;102286.69;5001178;28;20043;-72
2022/03/14 08:48:37;;;;;;;31.25;17.73;;;;;;;10.42;68.59;102292.81;4999654;28;20049;-72
2022/03/14 08:51:03;;;;;;;31.27;17.33;;;;;;;10.49;67.82;102292.53;5001137;28;20038;-72
2022/03/14 08:53:29;;;;;;;32.78;17.80;;;;;;;10.50;68.42;102296.06;5001019;28;20032;-71
2022/03/14 08:55:55;;;;;;;30.77;17.88;;;;;;;10.68;67.06;102300.66;4998371;28;20574;-71
2022/03/14 08:58:23;;;;;;;30.35;17.45;;;;;;;10.56;67.77;102310.03;4998029;28;20033;-71
2022/03/14 09:00:49;;;;;;;34.50;17.65;;;;;;;10.47;68.32;102310.38;5001292;28;20095;-71
2022/03/14 09:03:14;;;;;;;29.13;17.80;;;;;;;10.42;68.32;102315.03;5000959;28;20459;-72
2022/03/14 09:05:40;;;;;;;30.65;18.45;;;;;;;10.67;67.97;102325.59;4997392;28;20029;-71
2022/03/14 09:08:05;;;;;;;29.10;18.35;;;;;;;10.54;68.21;102316.31;5000878;28;20030;-72
2022/03/14 09:10:31;;;;;;;30.20;18.83;;;;;;;10.27;69.20;102320.94;5000285;28;20073;-72
2022/03/14 09:12:58;;;;;;;28.95;18.08;;;;;;;10.05;69.40;102326.19;5000891;28;20137;-71
2022/03/14 09:15:25;;;;;;;33.47;18.67;;;;;;;10.27;68.99;102328.94;4999570;28;20455;-72
2022/03/14 09:17:54;;;;;;;35.60;18.85;;;;;;;10.32;68.80;102333.16;4981252;28;20053;-71
2022/03/14 09:20:21;;;;;;;35.30;18.60;;;;;;;10.21;68.80;102338.00;4979885;28;20039;-72
2022/03/14 09:22:47;;;;;;;33.10;18.25;;;;;;;10.23;68.87;102348.63;4981569;28;20042;-71
2022/03/14 09:25:14;;;;;;;37.00;16.60;;;;;;;10.23;68.66;102346.81;4981331;28;20042;-72
2022/03/14 09:27:41;;;;;;;27.67;17.50;;;;;;;10.12;69.18;102349.03;4981511;28;20149;-71
2022/03/14 09:30:07;;;;;;;35.05;18.63;;;;;;;10.22;69.02;102349.53;5000629;28;20049;-71
2022/03/14 09:32:33;;;;;;;26.13;16.70;;;;;;;10.27;68.33;102356.47;5000588;28;20042;-71
2022/03/14 09:34:59;;;;;;;38.42;18.73;;;;;;;10.46;67.85;102353.13;5001469;28;20034;-72
2022/03/14 09:37:26;;;;;;;26.52;17.10;;;;;;;10.63;67.34;102351.50;5001304;28;20038;-72
2022/03/14 09:39:52;;;;;;;36.63;17.42;;;;;;;10.46;66.95;102356.66;5001303;28;20137;-70
2022/03/14 09:42:20;;;;;;;35.75;17.55;;;;;;;10.58;67.26;102364.16;5001158;28;20113;-71
2022/03/14 09:44:53;;;;;;;30.88;17.08;;;;;;;10.61;66.67;102365.84;5000868;28;20042;-71
2022/03/14 09:47:21;;;;;;;30.13;16.30;;;;;;;10.92;65.88;102365.50;5001307;28;20187;-71
2022/03/14 09:49:47;;;;;;;35.25;17.73;;;;;;;10.77;66.05;102366.13;5001068;28;20171;-71
2022/03/14 09:52:14;;;;;;;32.25;17.10;;;;;;;10.94;65.93;102371.63;5000943;28;20074;-71
2022/03/14 09:54:39;;;;;;;31.02;16.50;;;;;;;10.93;65.78;102375.25;5000584;28;20038;-72
2022/03/14 09:57:05;;;;;;;34.03;17.38;;;;;;;10.91;66.06;102381.59;5000547;28;20049;-71
2022/03/14 09:59:30;;;;;;;29.80;17.25;;;;;;;10.89;66.33;102381.63;5000627;28;20046;-71
2022/03/14 10:01:56;;;;;;;34.60;17.52;;;;;;;10.87;66.29;102392.38;5000261;28;20120;-72
2022/03/14 10:04:22;;;;;;;36.13;18.42;;;;;;;10.70;67.17;102385.97;5000779;28;20045;-71
2022/03/14 10:06:49;;;;;;;32.53;18.13;;;;;;;10.59;67.14;102389.94;5000734;28;20053;-71
2022/03/14 10:09:15;;;;;;;35.10;19.48;;;;;;;10.75;66.63;102389.34;5000624;28;20156;-71
2022/03/14 10:11:40;;;;;;;29.20;17.63;;;;;;;10.93;66.42;102390.38;5014853;28;20046;-70
2022/03/14 10:14:08;;;;;;;37.30;18.55;;;;;;;10.75;66.55;102397.34;5001785;28;20049;-70
2022/03/14 10:16:33;;;;;;;34.53;19.67;;;;;;;10.85;66.43;102404.06;5004283;28;20064;-71
2022/03/14 10:19:05;;;;;;;33.50;18.23;;;;;;;11.14;65.59;102406.44;5004077;28;20593;-71
2022/03/14 10:21:37;;;;;;;35.25;19.27;;;;;;;11.18;66.03;102412.50;5004058;28;20128;-70
2022/03/14 10:24:07;;;;;;;39.33;19.00;;;;;;;11.09;65.74;102412.84;5004109;28;20034;-73
2022/03/14 10:26:34;;;;;;;37.28;20.50;;;;;;;11.06;66.07;102410.34;5004358;28;20052;-72
2022/03/14 10:29:01;;;;;;;36.83;19.65;;;;;;;10.95;66.37;102416.09;5004113;28;20046;-71
2022/03/14 10:31:32;;;;;;;37.25;20.60;;;;;;;11.18;66.09;102425.84;5003814;28;20052;-70
2022/03/14 10:34:05;;;;;;;33.03;20.60;;;;;;;11.36;65.19;102422.44;5004408;28;20049;-70
2022/03/14 10:36:59;;;;;;;36.78;20.90;;;;;;;11.42;65.17;102437.34;5003681;28;20499;-70
2022/03/14 10:39:27;;;;;;;31.92;19.13;;;;;;;11.50;64.68;102432.56;5002168;28;20050;-72
2022/03/14 10:42:08;;;;;;;35.97;19.63;;;;;;;11.65;63.67;102439.94;5003915;28;20073;-72
2022/03/14 10:44:37;;;;;;;35.72;19.80;;;;;;;12.18;62.13;102433.19;5003326;28;20073;-72
2022/03/14 10:47:05;;;;;;;39.03;21.17;;;;;;;12.18;62.58;102428.72;5003832;28;20045;-71
2022/03/14 10:49:35;;;;;;;32.95;18.88;;;;;;;12.32;61.57;102432.59;5004093;28;20150;-71
2022/03/14 10:52:03;;;;;;;38.65;20.30;;;;;;;12.48;62.57;102430.94;5003537;28;20068;-71
2022/03/14 10:54:29;;;;;;;42.17;20.67;;;;;;;12.33;61.65;102432.50;5003358;28;20093;-71
2022/03/14 10:57:16;;;;;;;32.63;20.08;;;;;;;12.79;60.66;102421.50;5002711;28;20091;-71
2022/03/14 10:59:47;;;;;;;32.13;18.40;;;;;;;12.18;61.81;102438.56;5003382;28;20042;-71
2022/03/14 11:02:23;;;;;;;39.38;19.48;;;;;;;12.21;61.08;102442.91;5003197;28;20124;-71
2022/03/14 11:04:57;;;;;;;35.83;19.13;;;;;;;13.16;60.07;102437.53;5003155;28;20056;-71
2022/03/14 11:07:28;;;;;;;34.22;20.25;;;;;;;13.36;58.67;102444.63;5002979;28;20165;-71
2022/03/14 11:09:59;;;;;;;35.33;18.65;;;;;;;13.74;58.09;102442.69;5003114;28;20054;-71
2022/03/14 11:12:27;;;;;;;32.80;18.98;;;;;;;13.09;58.62;102448.63;5003209;28;20084;-71
2022/03/14 11:15:07;;;;;;;29.50;17.50;;;;;;;13.11;57.96;102446.75;5003168;28;20041;-71
2022/03/14 11:17:35;;;;;;;38.08;18.35;;;;;;;12.97;58.68;102444.72;5002993;28;20042;-71
2022/03/14 11:20:01;;;;;;;37.88;18.08;;;;;;;13.06;58.90;102448.78;5002824;28;20048;-71